createdAt,value
2023-02-04T00:01:34.288Z,23.05
2023-02-04T00:04:01.412Z,24.38
2023-02-04T00:06:28.342Z,23.50
2023-02-04T00:08:55.384Z,23.25
2023-02-04T00:11:22.309Z,23.25
2023-02-04T00:13:49.180Z,21.55
2023-02-04T00:16:16.261Z,23.42
2023-02-04T00:18:43.277Z,25.27
2023-02-04T00:21:10.199Z,24.25
2023-02-04T00:23:38.301Z,24.73
2023-02-04T00:26:07.358Z,23.98
2023-02-04T00:28:34.865Z,24.92
2023-02-04T00:31:01.930Z,26.48
2023-02-04T00:33:29.232Z,25.58
2023-02-04T00:35:56.381Z,26.08
2023-02-04T00:38:23.736Z,27.25
2023-02-04T00:40:50.681Z,26.05
2023-02-04T00:43:18.726Z,24.55
2023-02-04T00:45:45.767Z,28.40
2023-02-04T00:48:12.759Z,27.65
2023-02-04T00:50:39.946Z,26.05
2023-02-04T00:53:07.580Z,28.38
2023-02-04T00:55:34.620Z,28.38
2023-02-04T00:58:01.821Z,28.70
2023-02-04T01:00:29.156Z,28.98
2023-02-04T01:02:56.393Z,26.08
2023-02-04T01:05:23.384Z,26.30
2023-02-04T01:07:50.384Z,28.13
2023-02-04T01:10:18.022Z,29.02
2023-02-04T01:12:45.149Z,30.02
2023-02-04T01:15:12.469Z,32.67
2023-02-04T01:17:39.472Z,31.63
2023-02-04T01:20:06.860Z,32.15
2023-02-04T01:22:33.902Z,32.15
2023-02-04T01:25:00.929Z,30.85
2023-02-04T01:27:44.594Z,31.33
2023-02-04T01:30:13.432Z,32.35
2023-02-04T01:32:41.018Z,30.25
2023-02-04T01:35:08.334Z,28.60
2023-02-04T01:37:35.380Z,30.85
2023-02-04T01:40:02.438Z,30.92
2023-02-04T01:42:29.486Z,30.08
2023-02-04T01:44:56.453Z,32.30
2023-02-04T01:47:24.834Z,33.78
2023-02-04T01:49:54.311Z,32.63
2023-02-04T01:52:23.137Z,32.10
2023-02-04T01:54:51.834Z,34.47
2023-02-04T01:57:18.964Z,33.03
2023-02-04T01:59:47.489Z,31.98
2023-02-04T02:02:42.442Z,37.17
2023-02-04T02:05:12.292Z,36.30
2023-02-04T02:07:39.552Z,37.30
2023-02-04T02:10:09.528Z,45.67
2023-02-04T02:12:37.271Z,39.95
2023-02-04T02:15:05.594Z,41.95
2023-02-04T02:17:33.523Z,36.13
2023-02-04T02:20:00.750Z,37.60
2023-02-04T02:22:35.493Z,35.35
2023-02-04T02:27:34.534Z,38.47
2023-02-04T02:30:01.587Z,38.33
2023-02-04T02:32:28.802Z,41.03
2023-02-04T02:34:55.767Z,38.88
2023-02-04T02:37:22.854Z,39.83
2023-02-04T02:39:49.798Z,40.33
2023-02-04T02:42:19.648Z,41.10
2023-02-04T02:44:49.851Z,42.10
2023-02-04T02:47:20.137Z,38.63
2023-02-04T02:49:51.058Z,39.75
2023-02-04T02:52:19.009Z,41.60
2023-02-04T02:54:46.942Z,40.20
2023-02-04T02:57:19.760Z,42.03
2023-02-04T02:59:47.611Z,41.20
2023-02-04T03:02:18.916Z,41.63
2023-02-04T03:04:51.154Z,43.67
2023-02-04T03:07:20.922Z,41.40
2023-02-04T03:09:49.131Z,40.25
2023-02-04T03:12:16.191Z,40.53
2023-02-04T03:14:43.251Z,39.80
2023-02-04T03:17:11.206Z,39.10
2023-02-04T03:19:39.614Z,38.75
2023-02-04T03:22:08.065Z,39.03
2023-02-04T03:24:37.054Z,38.58
2023-02-04T03:27:04.522Z,37.28
2023-02-04T03:29:31.675Z,37.03
2023-02-04T03:32:00.143Z,37.88
2023-02-04T03:34:27.463Z,37.75
2023-02-04T03:36:54.665Z,38.78
2023-02-04T03:39:21.791Z,38.30
2023-02-04T03:41:48.787Z,40.25
2023-02-04T03:44:15.817Z,40.45
2023-02-04T03:46:42.791Z,40.22
2023-02-04T03:49:09.797Z,38.78
2023-02-04T03:51:36.823Z,40.25
2023-02-04T03:54:04.089Z,38.67
2023-02-04T03:56:31.087Z,41.20
2023-02-04T03:58:58.088Z,40.53
2023-02-04T04:01:25.146Z,39.70
2023-02-04T04:03:52.303Z,38.72
2023-02-04T04:06:19.469Z,40.30
2023-02-04T04:08:46.494Z,39.83
2023-02-04T04:11:13.459Z,39.22
2023-02-04T04:13:40.619Z,38.63
2023-02-04T04:16:09.254Z,39.22
2023-02-04T04:18:36.372Z,40.13
2023-02-04T04:21:03.750Z,38.50
2023-02-04T04:23:30.836Z,39.80
2023-02-04T04:25:57.819Z,39.78
2023-02-04T04:28:24.845Z,37.65
2023-02-04T04:30:52.204Z,38.20
2023-02-04T04:33:19.256Z,36.35
2023-02-04T04:35:46.288Z,41.70
2023-02-04T04:38:13.509Z,41.78
2023-02-04T04:40:40.555Z,43.78
2023-02-04T04:43:07.554Z,40.67
2023-02-04T04:45:34.631Z,42.67
2023-02-04T04:48:01.804Z,42.90
2023-02-04T04:50:28.883Z,41.08
2023-02-04T04:52:55.935Z,41.88
2023-02-04T04:55:22.943Z,36.97
2023-02-04T04:57:50.125Z,39.33
2023-02-04T05:00:20.110Z,41.83
2023-02-04T05:02:47.822Z,38.88
2023-02-04T05:05:15.177Z,37.00
2023-02-04T05:07:42.217Z,37.45
2023-02-04T05:10:09.636Z,39.50
2023-02-04T05:12:36.710Z,38.42
2023-02-04T05:15:03.943Z,35.53
2023-02-04T05:17:30.945Z,36.10
2023-02-04T05:19:57.919Z,38.85
2023-02-04T05:22:24.975Z,36.47
2023-02-04T05:24:51.940Z,35.95
2023-02-04T05:27:19.027Z,31.58
2023-02-04T05:29:46.234Z,33.75
2023-02-04T05:32:13.177Z,32.17
2023-02-04T05:34:40.205Z,27.98
2023-02-04T05:37:07.320Z,21.38
2023-02-04T05:39:34.372Z,20.75
2023-02-04T05:42:01.346Z,32.92
2023-02-04T05:44:29.198Z,39.92
2023-02-04T05:46:56.130Z,40.10
2023-02-04T05:49:23.883Z,37.42
2023-02-04T05:51:50.969Z,38.70
2023-02-04T05:54:20.560Z,42.53
2023-02-04T05:56:48.184Z,47.30
2023-02-04T05:59:15.311Z,43.65
2023-02-04T06:01:42.295Z,43.13
2023-02-04T06:04:09.358Z,41.15
2023-02-04T06:06:36.580Z,46.17
2023-02-04T06:09:04.192Z,42.55
2023-02-04T06:11:31.135Z,43.78
2023-02-04T06:13:58.282Z,47.15
2023-02-04T06:16:25.343Z,45.08
2023-02-04T06:18:52.304Z,44.90
2023-02-04T06:21:19.308Z,47.17
2023-02-04T06:23:46.549Z,43.20
2023-02-04T06:26:13.613Z,44.50
2023-02-04T06:28:40.498Z,46.63
2023-02-04T06:31:09.230Z,43.30
2023-02-04T06:33:37.238Z,47.88
2023-02-04T06:36:05.004Z,47.42
2023-02-04T06:38:31.967Z,51.05
2023-02-04T06:40:58.858Z,51.78
2023-02-04T06:43:27.644Z,56.13
2023-02-04T06:45:54.711Z,54.13
2023-02-04T06:48:21.838Z,56.08
2023-02-04T06:50:48.763Z,53.15
2023-02-04T06:53:15.802Z,52.95
2023-02-04T06:55:42.813Z,60.83
2023-02-04T06:58:09.831Z,59.15
2023-02-04T07:00:36.830Z,57.00
2023-02-04T07:03:03.880Z,71.28
2023-02-04T07:05:31.428Z,82.82
2023-02-04T07:07:58.399Z,58.72
2023-02-04T07:10:25.330Z,59.38
2023-02-04T07:12:52.273Z,56.63
2023-02-04T07:15:19.236Z,57.05
2023-02-04T07:17:46.222Z,58.58
2023-02-04T07:20:13.224Z,56.67
2023-02-04T07:22:40.242Z,53.58
2023-02-04T07:25:07.486Z,54.65
2023-02-04T07:27:34.563Z,55.38
2023-02-04T07:30:01.671Z,56.15
2023-02-04T07:32:32.845Z,59.85
2023-02-04T07:35:00.474Z,57.42
2023-02-04T07:37:27.835Z,57.17
2023-02-04T07:39:55.137Z,56.33
2023-02-04T07:42:22.078Z,54.78
2023-02-04T07:44:54.831Z,57.25
2023-02-04T07:47:21.753Z,60.00
2023-02-04T07:49:48.759Z,60.22
2023-02-04T07:52:15.785Z,60.70
2023-02-04T07:54:43.001Z,58.63
2023-02-04T07:57:10.156Z,61.17
2023-02-04T07:59:37.158Z,59.63
2023-02-04T08:02:04.322Z,59.78
2023-02-04T08:04:31.392Z,59.75
2023-02-04T08:06:58.734Z,59.40
2023-02-04T08:09:27.293Z,59.75
2023-02-04T08:11:54.607Z,59.70
2023-02-04T08:14:21.600Z,61.42
2023-02-04T08:16:48.775Z,59.22
2023-02-04T08:19:19.182Z,62.35
2023-02-04T08:21:46.266Z,59.25
2023-02-04T08:24:14.112Z,60.65
2023-02-04T08:26:42.215Z,59.03
2023-02-04T08:29:09.649Z,59.97
2023-02-04T08:31:37.790Z,59.30
2023-02-04T08:34:05.900Z,55.45
2023-02-04T08:36:33.393Z,67.35
2023-02-04T08:39:00.311Z,63.10
2023-02-04T08:41:27.433Z,61.75
2023-02-04T08:43:54.333Z,57.10
2023-02-04T08:46:21.276Z,58.78
2023-02-04T08:48:48.331Z,60.72
2023-02-04T08:51:15.446Z,60.85
2023-02-04T08:53:42.491Z,62.67
2023-02-04T08:56:10.411Z,69.78
2023-02-04T09:01:04.511Z,73.40
2023-02-04T09:03:32.116Z,68.63
2023-02-04T09:05:59.056Z,72.80
2023-02-04T09:08:25.966Z,71.32
2023-02-04T09:10:52.868Z,72.32
2023-02-04T09:15:46.700Z,74.57
2023-02-04T09:18:21.990Z,70.03
2023-02-04T09:20:49.782Z,70.60
2023-02-04T15:08:32.796Z,69.18
2023-02-04T15:10:59.806Z,73.20
2023-02-04T15:13:28.676Z,74.18
2023-02-04T15:15:55.798Z,68.78
2023-02-04T15:18:23.022Z,70.55
2023-02-04T15:20:49.953Z,69.68
2023-02-04T15:23:18.127Z,71.60
2023-02-04T15:25:45.459Z,73.90
2023-02-04T15:28:13.014Z,77.95
2023-02-04T15:30:40.357Z,78.68
2023-02-04T15:33:07.370Z,81.05
2023-02-04T15:35:34.296Z,85.82
2023-02-04T15:38:01.286Z,90.10
2023-02-04T15:40:30.137Z,91.45
2023-02-04T15:42:57.202Z,92.20
2023-02-04T15:45:24.354Z,92.13
2023-02-04T15:47:51.358Z,98.60
2023-02-04T15:50:18.379Z,97.70
2023-02-04T15:52:45.487Z,99.30
2023-02-04T15:55:12.614Z,102.10
2023-02-04T15:57:39.647Z,103.65
2023-02-04T16:00:07.478Z,100.85
2023-02-04T16:02:34.564Z,100.30
2023-02-04T16:05:01.484Z,105.03
2023-02-04T16:07:28.422Z,106.25
2023-02-04T16:09:55.370Z,108.47
2023-02-04T16:12:22.328Z,109.43
2023-02-04T16:14:49.298Z,103.88
2023-02-04T16:17:18.813Z,106.10
2023-02-04T16:19:45.938Z,102.78
2023-02-04T16:22:12.954Z,102.13
2023-02-04T16:24:39.976Z,104.03
2023-02-04T16:27:07.047Z,105.32
2023-02-04T16:29:33.977Z,106.07
2023-02-04T16:32:00.908Z,101.80
2023-02-04T16:34:29.296Z,98.80
2023-02-04T16:36:56.206Z,98.45
2023-02-04T16:39:24.376Z,102.72
2023-02-04T16:41:51.522Z,97.88
2023-02-04T16:44:18.417Z,101.32
2023-02-04T16:46:45.491Z,99.63
2023-02-04T16:49:12.470Z,99.97
2023-02-04T16:51:39.387Z,102.53
2023-02-04T16:54:06.403Z,99.32
2023-02-04T16:56:35.636Z,95.53
2023-02-04T16:59:02.952Z,100.07
2023-02-04T17:01:30.074Z,99.35
2023-02-04T17:03:59.820Z,100.47
2023-02-04T17:06:28.122Z,102.75
2023-02-04T17:08:55.647Z,132.27
2023-02-04T17:11:28.912Z,116.28
2023-02-04T17:14:00.430Z,118.78
2023-02-04T17:16:27.870Z,105.82
2023-02-04T17:18:55.314Z,104.65
2023-02-04T17:21:24.661Z,109.10
2023-02-04T17:23:51.880Z,115.80
2023-02-04T17:26:19.617Z,105.50
2023-02-04T17:28:46.545Z,104.68
2023-02-04T17:31:13.735Z,105.78
2023-02-04T17:33:40.745Z,117.13
2023-02-04T17:36:08.527Z,112.53
2023-02-04T17:38:35.520Z,107.25
2023-02-04T17:41:02.711Z,109.63
2023-02-04T17:43:29.704Z,85.38
2023-02-04T17:45:56.654Z,80.18
2023-02-04T17:48:23.592Z,63.20
2023-02-04T17:50:50.510Z,52.95
2023-02-04T17:53:17.413Z,56.33
2023-02-04T17:55:44.361Z,49.47
2023-02-04T17:58:27.061Z,46.75
2023-02-04T18:00:57.758Z,44.30
2023-02-04T18:03:29.123Z,37.53
2023-02-04T18:05:56.938Z,40.85
2023-02-04T18:08:38.263Z,40.72
2023-02-04T18:11:18.303Z,43.88
2023-02-04T18:13:45.310Z,39.70
2023-02-04T18:16:30.587Z,43.17
2023-02-04T18:19:18.490Z,44.75
2023-02-04T18:21:46.554Z,40.70
2023-02-04T18:24:42.153Z,42.75
2023-02-04T18:27:17.115Z,45.45
2023-02-04T18:29:47.784Z,41.92
2023-02-04T18:32:38.887Z,42.08
2023-02-04T18:35:31.596Z,41.75
2023-02-04T18:37:58.574Z,43.08
2023-02-04T18:40:28.309Z,37.17
2023-02-04T18:43:13.992Z,36.58
2023-02-04T18:45:41.327Z,38.30
2023-02-04T18:48:20.545Z,37.05
2023-02-04T18:50:50.316Z,34.55
2023-02-04T18:53:23.544Z,33.58
2023-02-04T18:55:53.332Z,31.38
2023-02-04T18:58:34.024Z,31.70
2023-02-04T19:01:05.525Z,33.42
2023-02-04T19:03:42.201Z,31.88
2023-02-04T19:06:25.170Z,33.10
2023-02-04T19:08:52.915Z,31.45
2023-02-04T19:11:36.644Z,32.25
2023-02-04T19:14:18.294Z,35.45
2023-02-04T19:16:52.618Z,33.40
2023-02-04T19:20:02.695Z,32.58
2023-02-04T19:22:46.912Z,34.97
2023-02-04T19:25:22.886Z,35.67
2023-02-04T19:27:59.130Z,35.92
2023-02-04T19:30:28.952Z,38.05
2023-02-04T19:33:10.114Z,40.15
2023-02-04T19:35:43.263Z,40.45
2023-02-04T19:38:43.169Z,37.83
2023-02-04T19:41:48.017Z,36.20
2023-02-04T19:44:15.132Z,38.03
2023-02-04T19:46:42.926Z,38.92
2023-02-04T19:49:21.874Z,37.88
2023-02-04T19:51:55.250Z,35.42
2023-02-04T19:54:25.269Z,39.92
2023-02-04T19:56:54.743Z,40.40
2023-02-04T19:59:28.657Z,40.83
2023-02-04T20:02:07.464Z,39.42
2023-02-04T20:04:42.856Z,40.13
2023-02-04T20:07:18.984Z,38.38
2023-02-04T20:09:46.391Z,37.47
2023-02-04T20:12:17.847Z,36.70
2023-02-04T20:14:47.633Z,34.40
2023-02-04T20:17:26.855Z,34.67
2023-02-04T20:19:53.795Z,34.63
2023-02-04T20:22:21.788Z,35.10
2023-02-04T20:24:54.513Z,34.75
2023-02-04T20:27:28.757Z,32.92
2023-02-04T20:30:23.439Z,30.73
2023-02-04T20:32:55.613Z,31.60
2023-02-04T20:35:22.822Z,30.40
2023-02-04T20:37:54.044Z,31.70
2023-02-04T20:40:36.466Z,32.33
2023-02-04T20:43:20.221Z,31.33
2023-02-04T20:45:49.696Z,30.90
2023-02-04T20:48:16.605Z,30.73
2023-02-04T20:50:54.568Z,31.63
2023-02-04T20:53:29.675Z,29.92
2023-02-04T20:56:05.115Z,28.75
2023-02-04T20:58:41.209Z,29.40
2023-02-04T21:01:38.213Z,28.52
2023-02-04T21:04:34.012Z,27.63
2023-02-04T21:07:13.958Z,27.75
2023-02-04T21:09:40.893Z,28.05
2023-02-04T21:12:08.582Z,28.23
2023-02-04T21:14:35.777Z,28.13
2023-02-04T21:17:03.420Z,27.98
2023-02-04T21:19:30.685Z,28.00
2023-02-04T21:21:58.860Z,26.02
2023-02-04T21:24:26.678Z,25.08
2023-02-04T21:26:53.770Z,24.33
2023-02-04T21:29:20.735Z,23.30
2023-02-04T21:31:47.785Z,22.85
2023-02-04T21:34:15.856Z,22.15
2023-02-04T21:36:42.782Z,21.95
2023-02-04T21:39:09.717Z,23.27
2023-02-04T21:41:36.775Z,23.30
2023-02-04T21:44:04.019Z,24.67
2023-02-04T21:46:31.242Z,25.00
2023-02-04T21:48:58.179Z,22.75
2023-02-04T21:51:25.161Z,23.75
2023-02-04T21:53:52.092Z,22.98
2023-02-04T21:56:19.050Z,23.02
2023-02-04T21:58:45.958Z,21.63
2023-02-04T22:01:12.929Z,23.75
2023-02-04T22:03:39.902Z,21.75
2023-02-04T22:06:07.357Z,21.73
2023-02-04T22:08:34.246Z,22.95
2023-02-04T22:11:01.134Z,21.63
2023-02-04T22:13:46.493Z,23.60
2023-02-04T22:16:13.532Z,21.63
2023-02-04T22:18:40.553Z,22.38
2023-02-04T22:21:07.472Z,24.37
2023-02-04T22:23:34.393Z,21.83
2023-02-04T22:26:01.353Z,21.20
2023-02-04T22:28:28.335Z,21.35
2023-02-04T22:30:55.286Z,22.00
2023-02-04T22:33:22.302Z,19.67
2023-02-04T22:35:49.242Z,22.63
2023-02-04T22:38:16.269Z,21.25
2023-02-04T22:40:43.289Z,22.30
2023-02-04T22:43:10.231Z,21.35
2023-02-04T22:45:37.185Z,21.90
2023-02-04T22:48:04.204Z,21.55
2023-02-04T22:50:31.173Z,21.65
2023-02-04T22:52:58.300Z,22.92
2023-02-04T22:55:25.270Z,21.67
2023-02-04T22:57:52.176Z,20.13
2023-02-04T23:00:19.216Z,21.20
2023-02-04T23:02:46.140Z,20.92
2023-02-04T23:05:13.040Z,21.25
2023-02-04T23:07:40.050Z,20.45
2023-02-04T23:10:07.552Z,21.65
2023-02-04T23:12:34.555Z,20.40
2023-02-04T23:15:01.596Z,20.50
2023-02-04T23:17:28.666Z,20.10
2023-02-04T23:19:55.714Z,20.02
2023-02-04T23:22:22.655Z,19.42
2023-02-04T23:24:49.712Z,19.52
2023-02-04T23:27:16.876Z,21.33
2023-02-04T23:29:43.955Z,19.33
2023-02-04T23:32:10.942Z,18.75
2023-02-04T23:34:38.151Z,19.45
2023-02-04T23:37:05.091Z,20.02
2023-02-04T23:39:32.042Z,19.50
2023-02-04T23:41:59.133Z,20.13
2023-02-04T23:44:26.103Z,18.95
2023-02-04T23:46:53.072Z,18.67
2023-02-04T23:49:20.135Z,19.23
2023-02-04T23:51:47.211Z,17.23
2023-02-04T23:54:14.264Z,18.58
2023-02-04T23:56:41.557Z,18.33
2023-02-04T23:59:08.676Z,17.75
